sensor_id;sensor_type;location;lat;lon;timestamp;P1;durP1;ratioP1;P2;durP2;ratioP2
47715;SDS011;33476;50.984;3.538;2022-10-31T00:00:47;2.92;;;1.38;;
47715;SDS011;33476;50.984;3.538;2022-10-31T00:03:13;4.32;;;1.65;;
47715;SDS011;33476;50.984;3.538;2022-10-31T00:05:42;3.60;;;1.40;;
47715;SDS011;33476;50.984;3.538;2022-10-31T00:08:08;2.78;;;1.60;;
47715;SDS011;33476;50.984;3.538;2022-10-31T00:10:36;3.50;;;1.27;;
47715;SDS011;33476;50.984;3.538;2022-10-31T00:13:02;2.33;;;1.20;;
47715;SDS011;33476;50.984;3.538;2022-10-31T00:15:28;3.22;;;1.05;;
47715;SDS011;33476;50.984;3.538;2022-10-31T00:17:53;3.45;;;1.00;;
47715;SDS011;33476;50.984;3.538;2022-10-31T00:20:18;3.15;;;0.90;;
47715;SDS011;33476;50.984;3.538;2022-10-31T00:22:44;2.50;;;1.10;;
47715;SDS011;33476;50.984;3.538;2022-10-31T00:25:09;1.77;;;0.82;;
47715;SDS011;33476;50.984;3.538;2022-10-31T00:27:34;3.13;;;0.90;;
47715;SDS011;33476;50.984;3.538;2022-10-31T00:29:59;3.47;;;0.88;;
47715;SDS011;33476;50.984;3.538;2022-10-31T00:32:25;2.85;;;0.90;;
47715;SDS011;33476;50.984;3.538;2022-10-31T00:34:54;4.30;;;0.77;;
47715;SDS011;33476;50.984;3.538;2022-10-31T00:37:19;2.95;;;1.02;;
47715;SDS011;33476;50.984;3.538;2022-10-31T00:39:44;5.70;;;1.00;;
47715;SDS011;33476;50.984;3.538;2022-10-31T00:42:10;2.30;;;0.65;;
47715;SDS011;33476;50.984;3.538;2022-10-31T00:44:35;5.35;;;1.17;;
47715;SDS011;33476;50.984;3.538;2022-10-31T00:47:00;3.92;;;0.88;;
47715;SDS011;33476;50.984;3.538;2022-10-31T00:49:26;3.78;;;0.88;;
47715;SDS011;33476;50.984;3.538;2022-10-31T00:51:51;2.95;;;0.90;;
47715;SDS011;33476;50.984;3.538;2022-10-31T00:54:16;4.00;;;1.10;;
47715;SDS011;33476;50.984;3.538;2022-10-31T00:56:42;1.27;;;0.60;;
47715;SDS011;33476;50.984;3.538;2022-10-31T00:59:07;3.42;;;1.05;;
47715;SDS011;33476;50.984;3.538;2022-10-31T01:01:32;2.65;;;0.80;;
47715;SDS011;33476;50.984;3.538;2022-10-31T01:03:58;1.60;;;0.90;;
47715;SDS011;33476;50.984;3.538;2022-10-31T01:06:23;2.03;;;0.50;;
47715;SDS011;33476;50.984;3.538;2022-10-31T01:08:48;2.10;;;1.02;;
47715;SDS011;33476;50.984;3.538;2022-10-31T01:11:15;3.28;;;0.75;;
47715;SDS011;33476;50.984;3.538;2022-10-31T01:13:42;1.40;;;0.80;;
47715;SDS011;33476;50.984;3.538;2022-10-31T01:16:10;2.75;;;1.00;;
47715;SDS011;33476;50.984;3.538;2022-10-31T01:18:37;1.05;;;0.50;;
47715;SDS011;33476;50.984;3.538;2022-10-31T01:21:04;3.15;;;0.63;;
47715;SDS011;33476;50.984;3.538;2022-10-31T01:23:31;2.33;;;0.57;;
47715;SDS011;33476;50.984;3.538;2022-10-31T01:26:04;1.52;;;0.60;;
47715;SDS011;33476;50.984;3.538;2022-10-31T01:28:30;1.23;;;0.60;;
47715;SDS011;33476;50.984;3.538;2022-10-31T01:30:59;4.25;;;0.60;;
47715;SDS011;33476;50.984;3.538;2022-10-31T01:33:25;1.88;;;0.85;;
47715;SDS011;33476;50.984;3.538;2022-10-31T01:35:50;1.20;;;0.50;;
47715;SDS011;33476;50.984;3.538;2022-10-31T01:38:15;2.95;;;0.73;;
47715;SDS011;33476;50.984;3.538;2022-10-31T01:40:41;1.05;;;0.60;;
47715;SDS011;33476;50.984;3.538;2022-10-31T01:43:09;1.52;;;0.45;;
47715;SDS011;33476;50.984;3.538;2022-10-31T01:45:37;2.03;;;0.55;;
47715;SDS011;33476;50.984;3.538;2022-10-31T01:48:02;2.78;;;0.47;;
47715;SDS011;33476;50.984;3.538;2022-10-31T01:50:29;2.38;;;0.63;;
47715;SDS011;33476;50.984;3.538;2022-10-31T01:52:59;1.05;;;0.50;;
47715;SDS011;33476;50.984;3.538;2022-10-31T01:55:26;1.63;;;0.70;;
47715;SDS011;33476;50.984;3.538;2022-10-31T01:57:57;4.13;;;0.50;;
47715;SDS011;33476;50.984;3.538;2022-10-31T02:00:26;1.00;;;0.55;;
47715;SDS011;33476;50.984;3.538;2022-10-31T02:02:52;1.63;;;0.60;;
47715;SDS011;33476;50.984;3.538;2022-10-31T02:05:21;4.50;;;0.75;;
47715;SDS011;33476;50.984;3.538;2022-10-31T02:07:57;1.52;;;0.45;;
47715;SDS011;33476;50.984;3.538;2022-10-31T02:10:26;2.13;;;0.50;;
47715;SDS011;33476;50.984;3.538;2022-10-31T02:12:53;2.90;;;0.55;;
47715;SDS011;33476;50.984;3.538;2022-10-31T02:15:21;1.10;;;0.50;;
47715;SDS011;33476;50.984;3.538;2022-10-31T02:17:46;2.72;;;0.60;;
47715;SDS011;33476;50.984;3.538;2022-10-31T02:25:46;1.33;;;0.80;;
47715;SDS011;33476;50.984;3.538;2022-10-31T02:34:19;2.70;;;0.80;;
47715;SDS011;33476;50.984;3.538;2022-10-31T02:36:53;4.47;;;1.00;;
47715;SDS011;33476;50.984;3.538;2022-10-31T02:42:10;3.80;;;1.10;;
47715;SDS011;33476;50.984;3.538;2022-10-31T02:44:48;1.90;;;0.90;;
47715;SDS011;33476;50.984;3.538;2022-10-31T02:47:24;5.95;;;1.13;;
47715;SDS011;33476;50.984;3.538;2022-10-31T02:52:27;2.17;;;0.80;;
47715;SDS011;33476;50.984;3.538;2022-10-31T02:54:54;2.53;;;0.80;;
47715;SDS011;33476;50.984;3.538;2022-10-31T02:57:21;3.33;;;1.10;;
47715;SDS011;33476;50.984;3.538;2022-10-31T02:59:59;2.42;;;1.05;;
47715;SDS011;33476;50.984;3.538;2022-10-31T03:08:54;3.05;;;1.40;;
47715;SDS011;33476;50.984;3.538;2022-10-31T03:11:00;2.28;;;1.10;;
47715;SDS011;33476;50.984;3.538;2022-10-31T03:13:35;4.18;;;1.30;;
47715;SDS011;33476;50.984;3.538;2022-10-31T03:19:03;4.72;;;1.10;;
47715;SDS011;33476;50.984;3.538;2022-10-31T03:24:00;1.48;;;1.05;;
47715;SDS011;33476;50.984;3.538;2022-10-31T03:26:29;2.00;;;1.15;;
47715;SDS011;33476;50.984;3.538;2022-10-31T03:29:03;2.40;;;1.08;;
47715;SDS011;33476;50.984;3.538;2022-10-31T03:31:35;2.35;;;1.17;;
47715;SDS011;33476;50.984;3.538;2022-10-31T03:34:07;3.40;;;1.27;;
47715;SDS011;33476;50.984;3.538;2022-10-31T03:36:35;3.15;;;1.52;;
47715;SDS011;33476;50.984;3.538;2022-10-31T03:39:04;5.05;;;1.20;;
47715;SDS011;33476;50.984;3.538;2022-10-31T03:41:33;2.40;;;1.27;;
47715;SDS011;33476;50.984;3.538;2022-10-31T03:44:06;3.97;;;1.80;;
47715;SDS011;33476;50.984;3.538;2022-10-31T03:49:01;2.22;;;1.20;;
47715;SDS011;33476;50.984;3.538;2022-10-31T03:54:16;2.65;;;1.38;;
47715;SDS011;33476;50.984;3.538;2022-10-31T03:59:44;2.95;;;1.38;;
47715;SDS011;33476;50.984;3.538;2022-10-31T04:02:15;3.70;;;1.40;;
47715;SDS011;33476;50.984;3.538;2022-10-31T04:04:44;2.80;;;1.30;;
47715;SDS011;33476;50.984;3.538;2022-10-31T04:07:11;2.67;;;1.20;;
47715;SDS011;33476;50.984;3.538;2022-10-31T04:09:39;4.78;;;1.48;;
47715;SDS011;33476;50.984;3.538;2022-10-31T04:12:08;2.13;;;0.82;;
47715;SDS011;33476;50.984;3.538;2022-10-31T04:14:37;2.65;;;1.05;;
47715;SDS011;33476;50.984;3.538;2022-10-31T04:17:05;1.95;;;1.17;;
47715;SDS011;33476;50.984;3.538;2022-10-31T04:19:35;2.45;;;1.08;;
47715;SDS011;33476;50.984;3.538;2022-10-31T04:22:01;3.88;;;1.58;;
47715;SDS011;33476;50.984;3.538;2022-10-31T04:24:26;4.32;;;1.80;;
47715;SDS011;33476;50.984;3.538;2022-10-31T04:26:51;2.47;;;1.83;;
47715;SDS011;33476;50.984;3.538;2022-10-31T04:29:16;3.40;;;1.40;;
47715;SDS011;33476;50.984;3.538;2022-10-31T04:31:42;5.28;;;1.80;;
47715;SDS011;33476;50.984;3.538;2022-10-31T04:34:07;6.15;;;1.67;;
47715;SDS011;33476;50.984;3.538;2022-10-31T04:36:32;4.35;;;1.63;;
47715;SDS011;33476;50.984;3.538;2022-10-31T04:38:58;3.83;;;1.23;;
47715;SDS011;33476;50.984;3.538;2022-10-31T04:41:23;2.78;;;1.40;;
47715;SDS011;33476;50.984;3.538;2022-10-31T04:43:48;4.95;;;1.90;;
47715;SDS011;33476;50.984;3.538;2022-10-31T04:46:14;2.38;;;1.30;;
47715;SDS011;33476;50.984;3.538;2022-10-31T04:48:39;2.33;;;1.58;;
47715;SDS011;33476;50.984;3.538;2022-10-31T04:51:04;2.50;;;1.50;;
47715;SDS011;33476;50.984;3.538;2022-10-31T04:53:30;3.83;;;1.33;;
47715;SDS011;33476;50.984;3.538;2022-10-31T04:55:57;3.78;;;1.42;;
47715;SDS011;33476;50.984;3.538;2022-10-31T04:58:23;3.88;;;1.27;;
47715;SDS011;33476;50.984;3.538;2022-10-31T05:00:51;8.43;;;1.60;;
47715;SDS011;33476;50.984;3.538;2022-10-31T05:03:17;2.83;;;1.23;;
47715;SDS011;33476;50.984;3.538;2022-10-31T05:05:42;3.75;;;1.33;;
47715;SDS011;33476;50.984;3.538;2022-10-31T05:08:08;2.03;;;1.33;;
47715;SDS011;33476;50.984;3.538;2022-10-31T05:10:33;2.25;;;1.42;;
47715;SDS011;33476;50.984;3.538;2022-10-31T05:12:59;3.65;;;2.25;;
47715;SDS011;33476;50.984;3.538;2022-10-31T05:15:26;5.90;;;1.77;;
47715;SDS011;33476;50.984;3.538;2022-10-31T05:17:52;3.70;;;2.22;;
47715;SDS011;33476;50.984;3.538;2022-10-31T05:20:19;4.22;;;1.45;;
47715;SDS011;33476;50.984;3.538;2022-10-31T05:22:46;3.20;;;1.52;;
47715;SDS011;33476;50.984;3.538;2022-10-31T05:25:16;2.72;;;1.65;;
47715;SDS011;33476;50.984;3.538;2022-10-31T05:27:43;3.78;;;1.75;;
47715;SDS011;33476;50.984;3.538;2022-10-31T05:30:11;3.67;;;1.30;;
47715;SDS011;33476;50.984;3.538;2022-10-31T05:32:41;3.95;;;1.38;;
47715;SDS011;33476;50.984;3.538;2022-10-31T05:35:11;2.83;;;1.45;;
47715;SDS011;33476;50.984;3.538;2022-10-31T05:37:38;3.22;;;1.73;;
47715;SDS011;33476;50.984;3.538;2022-10-31T05:40:05;3.10;;;1.88;;
47715;SDS011;33476;50.984;3.538;2022-10-31T05:42:32;2.88;;;2.00;;
47715;SDS011;33476;50.984;3.538;2022-10-31T05:44:58;2.78;;;1.73;;
47715;SDS011;33476;50.984;3.538;2022-10-31T05:47:23;2.58;;;1.55;;
47715;SDS011;33476;50.984;3.538;2022-10-31T05:49:49;4.55;;;2.00;;
47715;SDS011;33476;50.984;3.538;2022-10-31T05:52:15;7.47;;;2.33;;
47715;SDS011;33476;50.984;3.538;2022-10-31T05:54:40;4.38;;;2.47;;
47715;SDS011;33476;50.984;3.538;2022-10-31T05:57:05;3.83;;;2.28;;
47715;SDS011;33476;50.984;3.538;2022-10-31T05:59:31;6.18;;;2.63;;
47715;SDS011;33476;50.984;3.538;2022-10-31T06:01:56;3.78;;;1.88;;
47715;SDS011;33476;50.984;3.538;2022-10-31T06:04:22;3.28;;;1.90;;
47715;SDS011;33476;50.984;3.538;2022-10-31T06:06:47;3.17;;;1.70;;
47715;SDS011;33476;50.984;3.538;2022-10-31T06:09:13;3.03;;;1.38;;
47715;SDS011;33476;50.984;3.538;2022-10-31T06:11:38;3.88;;;2.30;;
47715;SDS011;33476;50.984;3.538;2022-10-31T06:14:04;6.32;;;2.03;;
47715;SDS011;33476;50.984;3.538;2022-10-31T06:16:29;3.13;;;1.65;;
47715;SDS011;33476;50.984;3.538;2022-10-31T06:18:55;10.18;;;2.50;;
47715;SDS011;33476;50.984;3.538;2022-10-31T06:21:20;3.80;;;2.10;;
47715;SDS011;33476;50.984;3.538;2022-10-31T06:23:46;4.25;;;2.28;;
47715;SDS011;33476;50.984;3.538;2022-10-31T06:26:12;5.43;;;2.22;;
47715;SDS011;33476;50.984;3.538;2022-10-31T06:28:37;6.13;;;2.67;;
47715;SDS011;33476;50.984;3.538;2022-10-31T06:31:02;4.22;;;2.03;;
47715;SDS011;33476;50.984;3.538;2022-10-31T06:33:28;7.93;;;3.47;;
47715;SDS011;33476;50.984;3.538;2022-10-31T06:35:53;5.75;;;3.00;;
47715;SDS011;33476;50.984;3.538;2022-10-31T06:38:18;6.85;;;3.45;;
47715;SDS011;33476;50.984;3.538;2022-10-31T06:40:44;4.53;;;2.53;;
47715;SDS011;33476;50.984;3.538;2022-10-31T06:43:09;7.47;;;3.30;;
47715;SDS011;33476;50.984;3.538;2022-10-31T06:45:36;9.13;;;2.63;;
47715;SDS011;33476;50.984;3.538;2022-10-31T06:48:02;6.57;;;2.80;;
47715;SDS011;33476;50.984;3.538;2022-10-31T06:50:27;6.40;;;2.85;;
47715;SDS011;33476;50.984;3.538;2022-10-31T06:52:53;10.00;;;2.90;;
47715;SDS011;33476;50.984;3.538;2022-10-31T06:55:20;7.75;;;2.80;;
47715;SDS011;33476;50.984;3.538;2022-10-31T07:00:35;5.30;;;3.10;;
47715;SDS011;33476;50.984;3.538;2022-10-31T07:03:01;5.32;;;3.17;;
47715;SDS011;33476;50.984;3.538;2022-10-31T07:05:28;5.30;;;3.35;;
47715;SDS011;33476;50.984;3.538;2022-10-31T07:07:58;9.30;;;3.60;;
47715;SDS011;33476;50.984;3.538;2022-10-31T07:10:26;5.45;;;3.08;;
47715;SDS011;33476;50.984;3.538;2022-10-31T07:12:53;6.55;;;3.90;;
47715;SDS011;33476;50.984;3.538;2022-10-31T07:15:19;11.63;;;3.92;;
47715;SDS011;33476;50.984;3.538;2022-10-31T07:17:45;4.85;;;3.35;;
47715;SDS011;33476;50.984;3.538;2022-10-31T07:20:10;5.88;;;3.30;;
47715;SDS011;33476;50.984;3.538;2022-10-31T07:22:35;7.90;;;3.53;;
47715;SDS011;33476;50.984;3.538;2022-10-31T07:25:02;6.15;;;3.53;;
47715;SDS011;33476;50.984;3.538;2022-10-31T07:27:28;7.15;;;3.30;;
47715;SDS011;33476;50.984;3.538;2022-10-31T07:29:54;7.43;;;3.63;;
47715;SDS011;33476;50.984;3.538;2022-10-31T07:32:19;7.45;;;4.25;;
47715;SDS011;33476;50.984;3.538;2022-10-31T07:34:44;7.72;;;4.10;;
47715;SDS011;33476;50.984;3.538;2022-10-31T07:37:09;8.48;;;4.15;;
47715;SDS011;33476;50.984;3.538;2022-10-31T07:39:35;7.10;;;3.58;;
47715;SDS011;33476;50.984;3.538;2022-10-31T07:42:00;6.88;;;4.22;;
47715;SDS011;33476;50.984;3.538;2022-10-31T07:44:25;5.53;;;3.53;;
47715;SDS011;33476;50.984;3.538;2022-10-31T07:46:51;9.90;;;4.10;;
47715;SDS011;33476;50.984;3.538;2022-10-31T07:49:16;8.25;;;4.47;;
47715;SDS011;33476;50.984;3.538;2022-10-31T07:51:41;7.25;;;3.53;;
47715;SDS011;33476;50.984;3.538;2022-10-31T07:54:06;14.40;;;4.70;;
47715;SDS011;33476;50.984;3.538;2022-10-31T07:56:32;8.65;;;4.53;;
47715;SDS011;33476;50.984;3.538;2022-10-31T07:58:57;12.98;;;4.90;;
47715;SDS011;33476;50.984;3.538;2022-10-31T08:01:23;14.95;;;5.32;;
47715;SDS011;33476;50.984;3.538;2022-10-31T08:03:48;8.70;;;4.32;;
47715;SDS011;33476;50.984;3.538;2022-10-31T08:06:13;8.35;;;4.78;;
47715;SDS011;33476;50.984;3.538;2022-10-31T08:08:38;8.65;;;5.00;;
47715;SDS011;33476;50.984;3.538;2022-10-31T08:11:04;9.80;;;5.13;;
47715;SDS011;33476;50.984;3.538;2022-10-31T08:13:29;9.13;;;5.07;;
47715;SDS011;33476;50.984;3.538;2022-10-31T08:15:55;8.45;;;5.13;;
47715;SDS011;33476;50.984;3.538;2022-10-31T08:18:28;10.38;;;4.97;;
47715;SDS011;33476;50.984;3.538;2022-10-31T08:20:53;9.98;;;4.57;;
47715;SDS011;33476;50.984;3.538;2022-10-31T08:23:18;7.15;;;4.75;;
47715;SDS011;33476;50.984;3.538;2022-10-31T08:25:44;11.02;;;5.28;;
47715;SDS011;33476;50.984;3.538;2022-10-31T08:28:11;10.93;;;5.13;;
47715;SDS011;33476;50.984;3.538;2022-10-31T08:30:37;9.75;;;5.10;;
47715;SDS011;33476;50.984;3.538;2022-10-31T08:33:04;9.13;;;5.32;;
47715;SDS011;33476;50.984;3.538;2022-10-31T08:35:30;11.80;;;5.15;;
47715;SDS011;33476;50.984;3.538;2022-10-31T08:37:56;13.82;;;5.88;;
47715;SDS011;33476;50.984;3.538;2022-10-31T08:40:22;10.98;;;5.40;;
47715;SDS011;33476;50.984;3.538;2022-10-31T08:42:55;11.48;;;5.85;;
47715;SDS011;33476;50.984;3.538;2022-10-31T08:45:21;11.35;;;5.47;;
47715;SDS011;33476;50.984;3.538;2022-10-31T08:47:46;9.98;;;5.45;;
47715;SDS011;33476;50.984;3.538;2022-10-31T08:50:12;8.65;;;5.93;;
47715;SDS011;33476;50.984;3.538;2022-10-31T08:52:37;11.57;;;5.53;;
47715;SDS011;33476;50.984;3.538;2022-10-31T08:55:02;15.50;;;6.47;;
47715;SDS011;33476;50.984;3.538;2022-10-31T08:57:28;9.90;;;5.63;;
47715;SDS011;33476;50.984;3.538;2022-10-31T08:59:53;10.50;;;5.97;;
47715;SDS011;33476;50.984;3.538;2022-10-31T09:02:18;10.60;;;5.93;;
47715;SDS011;33476;50.984;3.538;2022-10-31T09:04:44;11.05;;;5.35;;
47715;SDS011;33476;50.984;3.538;2022-10-31T09:07:10;12.15;;;5.13;;
47715;SDS011;33476;50.984;3.538;2022-10-31T09:09:35;8.88;;;4.60;;
47715;SDS011;33476;50.984;3.538;2022-10-31T09:12:01;12.38;;;5.10;;
47715;SDS011;33476;50.984;3.538;2022-10-31T09:14:26;11.82;;;5.65;;
47715;SDS011;33476;50.984;3.538;2022-10-31T09:16:51;9.75;;;5.20;;
47715;SDS011;33476;50.984;3.538;2022-10-31T09:19:17;11.63;;;5.22;;
47715;SDS011;33476;50.984;3.538;2022-10-31T09:21:42;6.97;;;4.78;;
47715;SDS011;33476;50.984;3.538;2022-10-31T09:24:07;11.52;;;4.97;;
47715;SDS011;33476;50.984;3.538;2022-10-31T09:26:33;13.88;;;5.60;;
47715;SDS011;33476;50.984;3.538;2022-10-31T09:28:58;13.50;;;5.60;;
47715;SDS011;33476;50.984;3.538;2022-10-31T09:31:26;13.95;;;5.55;;
47715;SDS011;33476;50.984;3.538;2022-10-31T09:33:52;10.90;;;5.57;;
47715;SDS011;33476;50.984;3.538;2022-10-31T09:36:19;12.38;;;5.18;;
47715;SDS011;33476;50.984;3.538;2022-10-31T09:38:44;7.63;;;5.28;;
47715;SDS011;33476;50.984;3.538;2022-10-31T09:43:52;16.17;;;5.65;;
47715;SDS011;33476;50.984;3.538;2022-10-31T09:46:49;11.88;;;5.72;;
47715;SDS011;33476;50.984;3.538;2022-10-31T09:52:22;12.60;;;5.22;;
47715;SDS011;33476;50.984;3.538;2022-10-31T09:55:14;7.90;;;4.82;;
47715;SDS011;33476;50.984;3.538;2022-10-31T09:57:43;10.45;;;5.43;;
47715;SDS011;33476;50.984;3.538;2022-10-31T10:00:14;8.45;;;4.70;;
47715;SDS011;33476;50.984;3.538;2022-10-31T10:02:44;9.82;;;4.55;;
47715;SDS011;33476;50.984;3.538;2022-10-31T10:05:12;9.75;;;4.15;;
47715;SDS011;33476;50.984;3.538;2022-10-31T10:07:49;8.02;;;4.78;;
47715;SDS011;33476;50.984;3.538;2022-10-31T10:22:17;9.73;;;4.97;;
47715;SDS011;33476;50.984;3.538;2022-10-31T10:25:20;13.52;;;4.93;;
47715;SDS011;33476;50.984;3.538;2022-10-31T10:28:02;8.80;;;4.65;;
47715;SDS011;33476;50.984;3.538;2022-10-31T10:33:10;14.43;;;4.70;;
47715;SDS011;33476;50.984;3.538;2022-10-31T10:36:01;9.02;;;4.95;;
47715;SDS011;33476;50.984;3.538;2022-10-31T10:38:34;11.75;;;4.85;;
47715;SDS011;33476;50.984;3.538;2022-10-31T10:41:11;9.32;;;4.53;;
47715;SDS011;33476;50.984;3.538;2022-10-31T10:43:41;10.82;;;4.75;;
47715;SDS011;33476;50.984;3.538;2022-10-31T10:52:27;9.30;;;4.63;;
47715;SDS011;33476;50.984;3.538;2022-10-31T10:57:58;7.45;;;4.07;;
47715;SDS011;33476;50.984;3.538;2022-10-31T11:00:29;10.25;;;4.53;;
47715;SDS011;33476;50.984;3.538;2022-10-31T11:02:57;8.18;;;3.72;;
47715;SDS011;33476;50.984;3.538;2022-10-31T11:05:30;9.93;;;3.85;;
47715;SDS011;33476;50.984;3.538;2022-10-31T11:08:00;6.60;;;3.67;;
47715;SDS011;33476;50.984;3.538;2022-10-31T11:10:26;5.88;;;3.55;;
47715;SDS011;33476;50.984;3.538;2022-10-31T11:12:59;11.15;;;4.07;;
47715;SDS011;33476;50.984;3.538;2022-10-31T11:16:04;8.30;;;3.55;;
47715;SDS011;33476;50.984;3.538;2022-10-31T11:18:40;7.13;;;3.47;;
47715;SDS011;33476;50.984;3.538;2022-10-31T11:21:19;7.15;;;3.70;;
47715;SDS011;33476;50.984;3.538;2022-10-31T11:23:48;9.23;;;3.53;;
47715;SDS011;33476;50.984;3.538;2022-10-31T11:26:20;7.90;;;3.72;;
47715;SDS011;33476;50.984;3.538;2022-10-31T11:28:56;6.07;;;3.58;;
47715;SDS011;33476;50.984;3.538;2022-10-31T11:31:22;8.75;;;3.85;;
47715;SDS011;33476;50.984;3.538;2022-10-31T11:33:50;10.25;;;3.90;;
47715;SDS011;33476;50.984;3.538;2022-10-31T11:36:24;6.72;;;4.22;;
47715;SDS011;33476;50.984;3.538;2022-10-31T11:38:51;6.95;;;3.88;;
47715;SDS011;33476;50.984;3.538;2022-10-31T11:43:49;11.63;;;4.85;;
47715;SDS011;33476;50.984;3.538;2022-10-31T11:46:39;10.10;;;4.50;;
47715;SDS011;33476;50.984;3.538;2022-10-31T11:49:15;12.82;;;5.13;;
47715;SDS011;33476;50.984;3.538;2022-10-31T11:51:46;9.85;;;4.95;;
47715;SDS011;33476;50.984;3.538;2022-10-31T11:54:24;6.50;;;4.20;;
47715;SDS011;33476;50.984;3.538;2022-10-31T11:56:52;10.40;;;4.65;;
47715;SDS011;33476;50.984;3.538;2022-10-31T11:59:22;7.32;;;4.50;;
47715;SDS011;33476;50.984;3.538;2022-10-31T12:01:51;7.85;;;4.35;;
47715;SDS011;33476;50.984;3.538;2022-10-31T12:04:18;10.10;;;4.07;;
47715;SDS011;33476;50.984;3.538;2022-10-31T12:07:01;10.65;;;3.88;;
47715;SDS011;33476;50.984;3.538;2022-10-31T12:09:28;9.95;;;4.30;;
47715;SDS011;33476;50.984;3.538;2022-10-31T12:14:42;9.38;;;4.03;;
47715;SDS011;33476;50.984;3.538;2022-10-31T12:28:37;7.78;;;4.00;;
47715;SDS011;33476;50.984;3.538;2022-10-31T12:36:51;10.50;;;4.18;;
47715;SDS011;33476;50.984;3.538;2022-10-31T12:45:00;7.45;;;4.03;;
47715;SDS011;33476;50.984;3.538;2022-10-31T12:53:03;10.90;;;4.47;;
47715;SDS011;33476;50.984;3.538;2022-10-31T13:01:17;10.73;;;4.85;;
47715;SDS011;33476;50.984;3.538;2022-10-31T13:06:22;9.15;;;4.43;;
47715;SDS011;33476;50.984;3.538;2022-10-31T13:09:00;13.27;;;4.53;;
47715;SDS011;33476;50.984;3.538;2022-10-31T13:11:32;10.88;;;4.15;;
47715;SDS011;33476;50.984;3.538;2022-10-31T13:14:05;13.25;;;4.28;;
47715;SDS011;33476;50.984;3.538;2022-10-31T13:16:34;11.88;;;4.68;;
47715;SDS011;33476;50.984;3.538;2022-10-31T13:21:37;11.38;;;4.75;;
47715;SDS011;33476;50.984;3.538;2022-10-31T13:24:10;11.45;;;4.22;;
47715;SDS011;33476;50.984;3.538;2022-10-31T13:26:46;9.75;;;4.90;;
47715;SDS011;33476;50.984;3.538;2022-10-31T13:29:19;9.00;;;5.13;;
47715;SDS011;33476;50.984;3.538;2022-10-31T13:31:46;15.48;;;5.18;;
47715;SDS011;33476;50.984;3.538;2022-10-31T13:34:34;12.80;;;5.15;;
47715;SDS011;33476;50.984;3.538;2022-10-31T13:40:11;13.43;;;5.57;;
47715;SDS011;33476;50.984;3.538;2022-10-31T13:42:55;11.35;;;5.32;;
47715;SDS011;33476;50.984;3.538;2022-10-31T13:45:27;13.65;;;5.50;;
47715;SDS011;33476;50.984;3.538;2022-10-31T13:50:22;12.88;;;5.28;;
47715;SDS011;33476;50.984;3.538;2022-10-31T13:52:49;10.95;;;5.68;;
47715;SDS011;33476;50.984;3.538;2022-10-31T13:58:00;12.38;;;5.68;;
47715;SDS011;33476;50.984;3.538;2022-10-31T14:00:29;14.55;;;6.25;;
47715;SDS011;33476;50.984;3.538;2022-10-31T14:02:59;13.25;;;5.72;;
47715;SDS011;33476;50.984;3.538;2022-10-31T14:05:32;13.13;;;6.13;;
47715;SDS011;33476;50.984;3.538;2022-10-31T14:08:03;14.25;;;6.25;;
47715;SDS011;33476;50.984;3.538;2022-10-31T14:13:30;14.13;;;6.00;;
47715;SDS011;33476;50.984;3.538;2022-10-31T14:15:55;13.88;;;6.10;;
47715;SDS011;33476;50.984;3.538;2022-10-31T14:18:36;12.90;;;6.03;;
47715;SDS011;33476;50.984;3.538;2022-10-31T14:23:50;10.88;;;5.55;;
47715;SDS011;33476;50.984;3.538;2022-10-31T14:28:52;12.27;;;6.35;;
47715;SDS011;33476;50.984;3.538;2022-10-31T14:34:17;14.32;;;6.35;;
47715;SDS011;33476;50.984;3.538;2022-10-31T14:37:03;11.50;;;5.32;;
47715;SDS011;33476;50.984;3.538;2022-10-31T14:45:45;14.70;;;6.13;;
47715;SDS011;33476;50.984;3.538;2022-10-31T14:50:59;11.70;;;5.55;;
47715;SDS011;33476;50.984;3.538;2022-10-31T14:55:56;10.82;;;5.32;;
47715;SDS011;33476;50.984;3.538;2022-10-31T14:58:28;11.80;;;5.20;;
47715;SDS011;33476;50.984;3.538;2022-10-31T15:00:56;14.52;;;5.93;;
47715;SDS011;33476;50.984;3.538;2022-10-31T15:03:30;11.25;;;5.72;;
47715;SDS011;33476;50.984;3.538;2022-10-31T15:06:02;12.18;;;5.88;;
47715;SDS011;33476;50.984;3.538;2022-10-31T15:08:41;10.52;;;5.82;;
47715;SDS011;33476;50.984;3.538;2022-10-31T15:11:20;14.13;;;6.10;;
47715;SDS011;33476;50.984;3.538;2022-10-31T15:13:57;10.15;;;5.95;;
47715;SDS011;33476;50.984;3.538;2022-10-31T15:16:30;20.00;;;6.70;;
47715;SDS011;33476;50.984;3.538;2022-10-31T15:19:05;15.23;;;5.80;;
47715;SDS011;33476;50.984;3.538;2022-10-31T15:21:35;15.45;;;6.30;;
47715;SDS011;33476;50.984;3.538;2022-10-31T15:24:10;13.45;;;6.07;;
47715;SDS011;33476;50.984;3.538;2022-10-31T15:26:40;13.70;;;6.45;;
47715;SDS011;33476;50.984;3.538;2022-10-31T15:29:11;14.45;;;6.18;;
47715;SDS011;33476;50.984;3.538;2022-10-31T15:31:38;15.43;;;6.75;;
47715;SDS011;33476;50.984;3.538;2022-10-31T15:34:05;13.38;;;6.25;;
47715;SDS011;33476;50.984;3.538;2022-10-31T15:36:41;15.05;;;6.90;;
47715;SDS011;33476;50.984;3.538;2022-10-31T15:39:09;13.90;;;6.72;;
47715;SDS011;33476;50.984;3.538;2022-10-31T15:41:55;19.35;;;6.65;;
47715;SDS011;33476;50.984;3.538;2022-10-31T15:47:01;12.80;;;6.65;;
47715;SDS011;33476;50.984;3.538;2022-10-31T15:51:54;18.42;;;7.15;;
47715;SDS011;33476;50.984;3.538;2022-10-31T15:54:20;19.15;;;7.05;;
47715;SDS011;33476;50.984;3.538;2022-10-31T15:56:46;15.93;;;6.80;;
47715;SDS011;33476;50.984;3.538;2022-10-31T15:59:20;12.57;;;6.78;;
47715;SDS011;33476;50.984;3.538;2022-10-31T16:02:01;12.95;;;6.53;;
47715;SDS011;33476;50.984;3.538;2022-10-31T16:04:34;19.05;;;6.82;;
47715;SDS011;33476;50.984;3.538;2022-10-31T16:07:00;15.57;;;6.70;;
47715;SDS011;33476;50.984;3.538;2022-10-31T16:12:16;18.65;;;7.00;;
47715;SDS011;33476;50.984;3.538;2022-10-31T16:14:41;14.05;;;6.53;;
47715;SDS011;33476;50.984;3.538;2022-10-31T16:17:10;16.63;;;7.13;;
47715;SDS011;33476;50.984;3.538;2022-10-31T16:19:44;15.98;;;7.57;;
47715;SDS011;33476;50.984;3.538;2022-10-31T16:22:33;16.88;;;7.03;;
47715;SDS011;33476;50.984;3.538;2022-10-31T16:25:04;16.20;;;7.50;;
47715;SDS011;33476;50.984;3.538;2022-10-31T16:27:31;14.85;;;6.97;;
47715;SDS011;33476;50.984;3.538;2022-10-31T16:29:59;20.85;;;7.90;;
47715;SDS011;33476;50.984;3.538;2022-10-31T16:32:35;16.52;;;7.05;;
47715;SDS011;33476;50.984;3.538;2022-10-31T16:35:17;19.52;;;7.85;;
47715;SDS011;33476;50.984;3.538;2022-10-31T16:37:49;16.88;;;6.80;;
47715;SDS011;33476;50.984;3.538;2022-10-31T16:40:14;15.35;;;6.65;;
47715;SDS011;33476;50.984;3.538;2022-10-31T16:42:40;13.38;;;6.07;;
47715;SDS011;33476;50.984;3.538;2022-10-31T16:45:07;14.65;;;6.57;;
47715;SDS011;33476;50.984;3.538;2022-10-31T16:47:38;13.25;;;6.18;;
47715;SDS011;33476;50.984;3.538;2022-10-31T16:50:05;13.02;;;6.20;;
47715;SDS011;33476;50.984;3.538;2022-10-31T16:52:36;10.73;;;5.63;;
47715;SDS011;33476;50.984;3.538;2022-10-31T16:55:02;10.50;;;4.70;;
47715;SDS011;33476;50.984;3.538;2022-10-31T16:57:28;12.68;;;5.30;;
47715;SDS011;33476;50.984;3.538;2022-10-31T16:59:56;17.38;;;5.30;;
47715;SDS011;33476;50.984;3.538;2022-10-31T17:02:22;12.63;;;5.03;;
47715;SDS011;33476;50.984;3.538;2022-10-31T17:04:47;11.82;;;5.57;;
47715;SDS011;33476;50.984;3.538;2022-10-31T17:07:13;14.15;;;5.38;;
47715;SDS011;33476;50.984;3.538;2022-10-31T17:09:38;9.32;;;4.68;;
47715;SDS011;33476;50.984;3.538;2022-10-31T17:12:04;12.18;;;5.25;;
47715;SDS011;33476;50.984;3.538;2022-10-31T17:14:30;14.00;;;5.03;;
47715;SDS011;33476;50.984;3.538;2022-10-31T17:16:57;10.85;;;5.60;;
47715;SDS011;33476;50.984;3.538;2022-10-31T17:19:22;10.63;;;4.43;;
47715;SDS011;33476;50.984;3.538;2022-10-31T17:21:47;12.20;;;5.55;;
47715;SDS011;33476;50.984;3.538;2022-10-31T17:24:13;15.27;;;5.47;;